Time;durP1;ratioP1;P1;durP2;ratioP2;P2;SDS_P1;SDS_P2;PMS_P1;PMS_P2;Temp;Humidity;BMP_temperature;BMP_pressure;BME280_temperature;BME280_humidity;BME280_pressure;Samples;Min_cycle;Max_cycle;Signal;HPM_P1;HPM_P2
2022/06/17 00:01:54;;;;;;;3.37;1.80;;;;;;;22.57;54.31;99698.75;4445329;32;33040;-62
2022/06/17 00:04:22;;;;;;;5.97;1.80;;;;;;;22.00;55.03;99696.78;4446365;32;33947;-62
2022/06/17 00:06:55;;;;;;;4.28;2.45;;;;;;;22.30;54.43;99703.03;4443631;32;34111;-64
2022/06/17 00:09:24;;;;;;;4.85;1.90;;;;;;;22.22;55.34;99697.72;4443697;32;34096;-64
2022/06/17 00:11:53;;;;;;;4.65;1.92;;;;;;;22.30;54.75;99692.97;4448118;32;33847;-63
2022/06/17 00:14:31;;;;;;;4.07;2.03;;;;;;;22.44;54.62;99699.44;4444519;32;35245;-61
2022/06/17 00:17:04;;;;;;;4.32;2.17;;;;;;;22.59;54.38;99699.38;4444839;32;32049;-61
2022/06/17 00:19:31;;;;;;;6.45;2.33;;;;;;;22.42;54.24;99696.06;4446479;32;33646;-63
2022/06/17 00:22:00;;;;;;;4.78;2.47;;;;;;;21.88;56.44;99699.13;4448887;32;35171;-65
2022/06/17 00:24:31;;;;;;;4.20;2.00;;;;;;;22.33;54.65;99697.22;4449682;32;34160;-61
2022/06/17 00:26:59;;;;;;;4.47;2.12;;;;;;;22.15;55.56;99710.38;4446253;32;33794;-62
2022/06/17 00:29:29;;;;;;;6.07;2.37;;;;;;;22.12;55.66;99705.28;4448301;32;34680;-63
2022/06/17 00:31:58;;;;;;;3.90;2.12;;;;;;;21.64;56.23;99708.44;4444705;32;35840;-65
2022/06/17 00:34:25;;;;;;;5.90;3.12;;;;;;;21.97;55.02;99705.31;4440351;32;35160;-62
2022/06/17 00:36:59;;;;;;;5.00;2.10;;;;;;;21.95;55.20;99710.09;4443398;32;33385;-64
2022/06/17 00:39:32;;;;;;;3.83;2.20;;;;;;;21.71;56.10;99725.72;4435065;32;33024;-66
2022/06/17 00:42:14;;;;;;;4.40;2.30;;;;;;;21.98;55.46;99720.63;4447449;32;33991;-62
2022/06/17 00:44:53;;;;;;;6.05;2.22;;;;;;;21.70;55.20;99713.13;4447125;32;33836;-65
2022/06/17 00:47:37;;;;;;;5.50;2.10;;;;;;;21.97;55.13;99708.91;4446835;32;32245;-64
2022/06/17 00:50:42;;;;;;;4.70;2.10;;;;;;;21.74;55.52;99694.53;4442231;32;34970;-65
2022/06/17 00:53:16;;;;;;;3.87;2.30;;;;;;;22.07;54.31;99695.81;4436391;32;33867;-64
2022/06/17 00:55:54;;;;;;;4.72;2.20;;;;;;;21.93;54.43;99687.69;4435654;32;34078;-62
2022/06/17 00:58:25;;;;;;;3.65;2.25;;;;;;;21.99;54.54;99700.50;4438896;32;33543;-62
2022/06/17 01:00:55;;;;;;;4.05;1.90;;;;;;;22.02;54.25;99692.84;4439312;32;34925;-62
2022/06/17 01:03:26;;;;;;;4.25;1.95;;;;;;;21.98;54.19;99702.41;4448401;32;35417;-63
2022/06/17 01:06:05;;;;;;;5.40;2.05;;;;;;;21.77;54.94;99695.00;4449836;32;35297;-65
2022/06/17 01:11:26;;;;;;;4.65;2.10;;;;;;;21.75;54.68;99693.50;4441328;32;33668;-62
2022/06/17 01:13:54;;;;;;;4.55;2.37;;;;;;;21.51;55.50;99694.59;4447610;32;35300;-61
2022/06/17 01:16:26;;;;;;;4.40;2.10;;;;;;;20.99;57.01;99698.97;4448945;32;35292;-63
2022/06/17 01:18:58;;;;;;;5.35;2.30;;;;;;;21.06;56.83;99705.41;4445233;32;34751;-61
2022/06/17 01:21:32;;;;;;;4.97;2.45;;;;;;;21.17;56.62;99702.22;4449049;32;34323;-63
2022/06/17 01:24:00;;;;;;;6.15;2.22;;;;;;;21.05;56.97;99700.12;4444225;32;34026;-65
2022/06/17 01:26:28;;;;;;;5.57;2.35;;;;;;;21.19;56.50;99707.50;4449137;32;34715;-61
2022/06/17 01:28:56;;;;;;;5.10;2.70;;;;;;;21.23;56.37;99705.25;4447834;32;34644;-60
2022/06/17 01:31:23;;;;;;;4.12;2.20;;;;;;;21.00;56.96;99718.91;4448435;32;34599;-61
2022/06/17 01:33:51;;;;;;;4.75;2.67;;;;;;;21.32;56.35;99720.47;4448031;32;34166;-63
2022/06/17 01:36:24;;;;;;;5.40;2.40;;;;;;;21.36;55.85;99721.81;4449913;32;32927;-62
2022/06/17 01:38:55;;;;;;;7.12;2.70;;;;;;;21.46;55.95;99732.44;4448388;32;33742;-66
2022/06/17 01:41:24;;;;;;;5.00;2.50;;;;;;;21.23;56.45;99724.31;4447221;32;32741;-66
2022/06/17 01:43:59;;;;;;;7.93;2.97;;;;;;;21.47;55.75;99732.25;4451564;32;33822;-67
2022/06/17 01:46:37;;;;;;;3.95;2.28;;;;;;;21.20;56.77;99744.56;4447383;32;32549;-64
2022/06/17 01:49:12;;;;;;;5.40;2.90;;;;;;;21.38;56.59;99745.12;4451328;32;33719;-66
2022/06/17 01:51:42;;;;;;;4.82;3.17;;;;;;;21.23;56.61;99737.91;4449358;32;33394;-66
2022/06/17 01:54:13;;;;;;;5.93;3.20;;;;;;;21.13;57.42;99732.72;4447561;32;34134;-66
2022/06/17 01:56:42;;;;;;;5.57;2.87;;;;;;;21.05;56.76;99736.34;4440715;32;33843;-63
2022/06/17 01:59:14;;;;;;;9.85;2.87;;;;;;;21.21;57.01;99743.53;4447746;32;34628;-64
2022/06/17 02:01:45;;;;;;;5.20;3.03;;;;;;;20.91;58.11;99746.16;4444586;32;34799;-65
2022/06/17 02:04:27;;;;;;;5.00;2.97;;;;;;;21.07;57.52;99747.06;4448381;32;34105;-66
2022/06/17 02:07:26;;;;;;;7.97;3.30;;;;;;;20.65;58.46;99745.66;4446127;32;34099;-65
2022/06/17 02:09:54;;;;;;;6.72;3.62;;;;;;;20.75;58.39;99745.44;4450923;32;33358;-68
2022/06/17 02:12:24;;;;;;;7.15;3.40;;;;;;;21.04;57.47;99740.09;4448581;32;35065;-69
2022/06/17 02:14:54;;;;;;;4.75;3.10;;;;;;;21.38;56.41;99736.94;4444065;32;35242;-65
2022/06/17 02:17:30;;;;;;;7.37;3.17;;;;;;;21.49;55.94;99743.81;4447034;32;34988;-67
2022/06/17 02:19:58;;;;;;;6.43;3.33;;;;;;;21.49;56.17;99741.09;4449674;32;34135;-65
2022/06/17 02:22:30;;;;;;;5.18;2.90;;;;;;;21.55;55.53;99743.06;4449062;32;34351;-67
2022/06/17 02:25:00;;;;;;;5.82;3.60;;;;;;;21.43;56.23;99733.66;4443235;32;32579;-66
2022/06/17 02:27:30;;;;;;;7.12;3.50;;;;;;;21.17;56.32;99742.22;4449020;32;35196;-66
2022/06/17 02:29:57;;;;;;;8.80;3.47;;;;;;;21.05;56.84;99739.06;4447971;32;34293;-64
2022/06/17 02:32:26;;;;;;;6.18;3.28;;;;;;;20.82;57.91;99728.19;4436537;32;34909;-69
2022/06/17 02:35:05;;;;;;;5.95;3.47;;;;;;;21.13;57.42;99739.00;4448183;32;34918;-66
2022/06/17 02:37:33;;;;;;;7.80;4.18;;;;;;;21.36;56.67;99744.44;4447782;32;33643;-64
2022/06/17 02:40:03;;;;;;;6.85;3.72;;;;;;;21.06;56.94;99743.50;4444323;32;33480;-66
2022/06/17 02:42:35;;;;;;;8.50;3.72;;;;;;;21.26;57.23;99746.56;4449179;32;33584;-69
2022/06/17 02:45:11;;;;;;;7.07;3.83;;;;;;;20.73;58.44;99742.03;4449336;32;33836;-68
2022/06/17 02:47:40;;;;;;;;;;;;;;;20.52;59.46;99740.81;4448262;32;34260;-66
2022/06/17 02:50:14;;;;;;;6.10;4.20;;;;;;;20.91;58.31;99745.31;4446592;32;33575;-66
2022/06/17 02:52:42;;;;;;;6.53;3.90;;;;;;;20.62;58.77;99746.03;4446857;32;35550;-68
2022/06/17 02:55:23;;;;;;;7.35;4.00;;;;;;;19.87;61.15;99752.78;4446484;32;33616;-68
2022/06/17 02:57:52;;;;;;;6.47;4.12;;;;;;;20.22;60.45;99751.47;4445735;32;34219;-67
2022/06/17 03:00:21;;;;;;;7.25;4.03;;;;;;;20.30;59.73;99756.00;4447983;32;32658;-65
2022/06/17 03:02:56;;;;;;;5.50;3.80;;;;;;;20.62;58.81;99749.59;4448767;32;33727;-65
2022/06/17 03:05:28;;;;;;;7.28;4.20;;;;;;;20.74;58.51;99749.16;4446190;32;35385;-67
2022/06/17 03:07:57;;;;;;;6.53;3.95;;;;;;;20.26;59.80;99743.81;4445080;32;33076;-66
2022/06/17 03:10:37;;;;;;;5.62;3.70;;;;;;;20.30;60.06;99736.16;4449946;32;32255;-69
2022/06/17 03:13:10;;;;;;;6.28;3.72;;;;;;;20.75;58.91;99735.38;4449491;32;33774;-65
2022/06/17 03:15:42;;;;;;;6.70;4.10;;;;;;;20.90;57.89;99738.19;4448252;32;33950;-64
2022/06/17 03:18:10;;;;;;;8.43;3.87;;;;;;;20.81;58.15;99736.56;4449295;32;35265;-65
2022/06/17 03:20:38;;;;;;;6.45;4.25;;;;;;;20.81;58.30;99729.22;4449767;32;32837;-65
2022/06/17 03:23:11;;;;;;;6.85;3.70;;;;;;;20.69;58.66;99730.66;4448233;32;33469;-67
2022/06/17 03:25:44;;;;;;;6.00;3.80;;;;;;;20.17;60.07;99736.72;4446171;32;36200;-65
2022/06/17 03:28:15;;;;;;;5.53;3.70;;;;;;;20.82;58.49;99739.06;4444469;32;32779;-67
2022/06/17 03:30:47;;;;;;;6.80;4.00;;;;;;;20.65;59.23;99745.66;4448461;32;33234;-67
2022/06/17 03:33:20;;;;;;;6.55;4.32;;;;;;;20.76;59.13;99745.22;4447565;32;32478;-64
2022/06/17 03:35:52;;;;;;;7.00;4.20;;;;;;;20.79;58.89;99744.03;4449017;32;33764;-65
2022/06/17 03:38:30;;;;;;;8.85;4.22;;;;;;;21.01;58.37;99745.06;4448961;32;34041;-66
2022/06/17 03:41:10;;;;;;;7.07;4.12;;;;;;;20.93;57.98;99754.16;4448052;32;33791;-65
2022/06/17 03:43:43;;;;;;;6.30;3.60;;;;;;;20.86;58.74;99745.84;4432416;32;33977;-66
2022/06/17 03:46:17;;;;;;;6.35;3.72;;;;;;;21.23;57.71;99755.09;4443159;32;34397;-67
2022/06/17 03:49:09;;;;;;;7.90;3.92;;;;;;;21.38;57.20;99758.72;4447300;32;34165;-65
2022/06/17 03:51:39;;;;;;;6.05;3.50;;;;;;;21.37;57.39;99762.47;4446699;32;34806;-64
2022/06/17 03:54:14;;;;;;;7.28;4.57;;;;;;;21.32;57.63;99764.03;4449196;32;33416;-66
2022/06/17 03:56:46;;;;;;;7.25;4.70;;;;;;;21.22;58.05;99767.00;4448515;32;34012;-66
2022/06/17 03:59:19;;;;;;;5.93;4.00;;;;;;;21.13;58.28;99768.94;4445267;32;32832;-66
2022/06/17 04:01:52;;;;;;;7.35;3.97;;;;;;;21.27;58.44;99775.47;4457415;32;34409;-65
2022/06/17 04:04:23;;;;;;;7.82;4.28;;;;;;;21.51;57.61;99771.72;4447615;32;33604;-64
2022/06/17 04:06:55;;;;;;;6.12;3.85;;;;;;;21.36;58.01;99781.72;4447972;32;32683;-66
2022/06/17 04:09:29;;;;;;;6.85;4.20;;;;;;;21.32;58.52;99788.53;4450370;32;34217;-63
2022/06/17 04:12:25;;;;;;;7.43;3.78;;;;;;;21.71;57.07;99784.81;4451760;32;34557;-64
2022/06/17 04:15:14;;;;;;;7.65;4.70;;;;;;;21.90;56.19;99794.31;4441775;32;33844;-65
2022/06/17 04:17:45;;;;;;;5.72;4.15;;;;;;;21.90;56.84;99792.44;4447234;32;34073;-64
2022/06/17 04:20:21;;;;;;;8.63;4.90;;;;;;;21.79;57.06;99793.72;4446831;32;34004;-68
2022/06/17 04:22:50;;;;;;;10.65;6.30;;;;;;;21.89;57.05;99801.63;4450743;32;32290;-69
2022/06/17 04:25:28;;;;;;;7.85;5.10;;;;;;;21.38;58.23;99794.13;4448596;32;35224;-65
2022/06/17 04:27:59;;;;;;;8.00;5.30;;;;;;;20.89;60.06;99796.31;4450456;32;33820;-68
2022/06/17 04:30:32;;;;;;;7.15;4.82;;;;;;;21.14;59.77;99797.00;4437000;32;32624;-64
2022/06/17 04:33:07;;;;;;;8.32;5.05;;;;;;;21.26;59.32;99792.81;4451387;32;32361;-63
2022/06/17 04:35:35;;;;;;;6.43;4.50;;;;;;;21.56;58.54;99799.22;4451041;32;33572;-65
2022/06/17 04:38:04;;;;;;;8.80;4.93;;;;;;;21.98;57.33;99797.78;4449726;32;34791;-64
2022/06/17 04:40:40;;;;;;;6.85;4.03;;;;;;;22.17;56.88;99792.84;4452346;32;32560;-63
2022/06/17 04:43:41;;;;;;;7.30;4.70;;;;;;;22.15;56.67;99800.31;4439288;32;33263;-63
2022/06/17 04:46:33;;;;;;;6.78;3.90;;;;;;;22.09;57.12;99791.88;4434849;32;33785;-63
2022/06/17 04:49:03;;;;;;;8.27;3.90;;;;;;;22.13;56.68;99792.34;4446561;32;34021;-63
2022/06/17 04:51:33;;;;;;;5.62;3.70;;;;;;;22.44;55.77;99792.16;4455608;32;34150;-68
2022/06/17 04:54:04;;;;;;;5.87;3.35;;;;;;;22.25;55.79;99787.31;4451224;32;33171;-68
2022/06/17 04:56:39;;;;;;;5.45;3.45;;;;;;;22.35;55.50;99792.47;4450272;32;35371;-63
2022/06/17 04:59:35;;;;;;;7.00;3.10;;;;;;;22.40;55.39;99790.84;4453799;32;33793;-66
2022/06/17 05:02:13;;;;;;;6.68;2.92;;;;;;;22.47;55.61;99790.91;4451922;32;33837;-68
2022/06/17 05:04:42;;;;;;;5.55;2.58;;;;;;;22.39;56.36;99797.34;4438162;32;33385;-65
2022/06/17 05:07:10;;;;;;;5.82;3.35;;;;;;;22.83;55.12;99807.31;4449690;32;32927;-68
2022/06/17 05:09:43;;;;;;;7.57;2.90;;;;;;;23.13;54.66;99801.78;4450584;32;34137;-66
2022/06/17 05:12:20;;;;;;;4.57;2.60;;;;;;;23.13;55.56;99804.50;4450801;32;34874;-69
2022/06/17 05:14:52;;;;;;;5.70;2.40;;;;;;;22.79;54.70;99806.84;4451169;32;33941;-66
2022/06/17 05:17:20;;;;;;;5.12;2.42;;;;;;;22.45;55.80;99809.38;4462319;32;33244;-67
2022/06/17 05:19:49;;;;;;;4.85;2.40;;;;;;;22.35;57.13;99797.91;4449167;32;32480;-65
2022/06/17 05:22:31;;;;;;;4.90;2.25;;;;;;;22.28;55.74;99808.72;4452713;32;33139;-66
2022/06/17 05:25:03;;;;;;;8.27;2.55;;;;;;;22.07;56.77;99802.09;4453339;32;33527;-68
2022/06/17 05:27:31;;;;;;;4.37;2.25;;;;;;;22.54;56.26;99797.31;4446395;32;33814;-67
2022/06/17 05:29:59;;;;;;;5.50;2.50;;;;;;;22.44;56.09;99796.75;4452363;32;35828;-68
2022/06/17 05:32:27;;;;;;;6.05;2.80;;;;;;;22.36;56.53;99791.41;4450255;32;33045;-69
2022/06/17 05:34:55;;;;;;;6.07;2.42;;;;;;;22.26;55.93;99792.53;4452523;32;33537;-65
2022/06/17 05:37:23;;;;;;;5.62;2.33;;;;;;;22.38;55.59;99792.91;4453600;32;33873;-66
2022/06/17 05:39:54;;;;;;;6.00;2.37;;;;;;;21.75;57.51;99799.72;4451323;32;32738;-65
2022/06/17 05:42:22;;;;;;;3.78;2.15;;;;;;;21.97;56.65;99801.53;4453436;32;34373;-68
2022/06/17 05:44:49;;;;;;;14.02;2.70;;;;;;;22.02;57.69;99810.00;4452882;32;33458;-66
2022/06/17 05:47:18;;;;;;;5.75;2.42;;;;;;;21.78;56.15;99813.00;4448247;32;33940;-66
2022/06/17 05:49:46;;;;;;;6.60;2.72;;;;;;;21.84;56.92;99820.41;4450464;32;34257;-68
2022/06/17 05:52:14;;;;;;;5.97;2.90;;;;;;;21.72;56.84;99828.19;4450674;32;35282;-65
2022/06/17 05:54:43;;;;;;;6.75;2.70;;;;;;;22.08;56.18;99825.59;4451562;32;33629;-71
2022/06/17 05:57:11;;;;;;;5.18;2.40;;;;;;;22.24;55.32;99831.94;4449773;32;32796;-67
2022/06/17 05:59:39;;;;;;;4.35;2.50;;;;;;;21.58;57.32;99837.19;4451089;32;35286;-67
2022/06/17 06:02:11;;;;;;;5.72;2.62;;;;;;;21.72;56.80;99841.81;4450794;32;32794;-67
2022/06/17 06:04:41;;;;;;;5.93;2.85;;;;;;;22.33;56.20;99839.81;4447817;32;32590;-68
2022/06/17 06:07:09;;;;;;;4.82;2.47;;;;;;;22.42;55.91;99846.03;4439781;32;33906;-67
2022/06/17 06:09:38;;;;;;;4.05;2.60;;;;;;;21.70;57.30;99845.75;4437962;32;33762;-67
2022/06/17 06:12:08;;;;;;;7.15;2.67;;;;;;;21.20;57.59;99839.81;4450297;32;37322;-67
2022/06/17 06:14:35;;;;;;;4.55;2.70;;;;;;;22.10;56.48;99845.34;4452917;32;32359;-67
2022/06/17 06:17:03;;;;;;;4.25;2.30;;;;;;;22.06;57.77;99848.66;4452727;32;34767;-66
2022/06/17 06:19:32;;;;;;;5.72;2.90;;;;;;;22.82;54.99;99853.88;4452630;32;35022;-66
2022/06/17 06:21:59;;;;;;;7.07;2.67;;;;;;;22.95;55.14;99854.06;4452362;32;34802;-68
2022/06/17 06:24:27;;;;;;;4.03;2.22;;;;;;;22.78;55.40;99850.69;4450526;32;33688;-69
2022/06/17 06:26:55;;;;;;;7.47;3.05;;;;;;;22.17;55.70;99853.66;4450506;32;32369;-67
2022/06/17 06:29:23;;;;;;;5.18;2.40;;;;;;;22.19;55.33;99851.59;4448211;32;34048;-69
2022/06/17 06:31:50;;;;;;;6.75;3.35;;;;;;;22.19;55.17;99870.69;4450679;32;34011;-66
2022/06/17 06:34:20;;;;;;;4.90;2.62;;;;;;;22.29;54.85;99859.50;4450460;32;32282;-66
2022/06/17 06:36:47;;;;;;;7.18;2.67;;;;;;;22.08;55.91;99869.19;4451176;32;33903;-66
2022/06/17 06:39:15;;;;;;;6.82;2.70;;;;;;;21.95;56.42;99877.19;4452520;32;35166;-67
2022/06/17 06:41:43;;;;;;;6.35;2.97;;;;;;;22.14;56.14;99875.78;4450946;32;35181;-68
2022/06/17 06:44:10;;;;;;;5.00;3.00;;;;;;;22.69;54.14;99870.94;4450681;32;33765;-69
2022/06/17 06:46:40;;;;;;;4.80;2.75;;;;;;;22.62;55.01;99879.03;4447550;32;33956;-69
2022/06/17 06:49:13;;;;;;;4.97;2.78;;;;;;;22.69;55.46;99873.66;4451732;32;35845;-68
2022/06/17 06:51:40;;;;;;;7.45;3.15;;;;;;;22.96;54.05;99874.88;4451242;32;34007;-70
2022/06/17 06:54:08;;;;;;;8.45;3.12;;;;;;;22.38;54.78;99868.44;4448126;32;34469;-67
2022/06/17 06:56:36;;;;;;;5.57;3.17;;;;;;;22.09;56.14;99868.19;4449557;32;33541;-66
2022/06/17 06:59:04;;;;;;;5.62;3.00;;;;;;;22.52;54.91;99860.22;4452765;32;33837;-71
2022/06/17 07:01:33;;;;;;;8.25;3.10;;;;;;;22.03;56.21;99860.75;4449443;32;34265;-68
2022/06/17 07:04:01;;;;;;;7.93;3.17;;;;;;;22.25;56.46;99867.19;4447890;32;33711;-69
2022/06/17 07:06:28;;;;;;;5.93;3.08;;;;;;;22.21;56.15;99862.28;4448294;32;33478;-68
2022/06/17 07:08:56;;;;;;;5.60;3.05;;;;;;;22.69;54.50;99876.38;4449122;32;32844;-67
2022/06/17 07:11:24;;;;;;;5.22;2.97;;;;;;;22.71;54.93;99874.31;4451348;32;35385;-68
2022/06/17 07:13:52;;;;;;;5.95;2.80;;;;;;;22.78;54.02;99872.53;4452579;32;33316;-69
2022/06/17 07:16:19;;;;;;;6.10;2.75;;;;;;;22.93;53.19;99870.66;4447329;32;34939;-69
2022/06/17 07:18:47;;;;;;;6.95;2.70;;;;;;;22.36;55.05;99879.50;4452444;32;33665;-71
2022/06/17 07:21:15;;;;;;;6.15;3.08;;;;;;;22.68;53.50;99880.16;4449891;32;33969;-69
2022/06/17 07:23:44;;;;;;;4.70;2.60;;;;;;;23.04;53.57;99884.81;4451125;32;32439;-66
2022/06/17 07:26:16;;;;;;;9.45;3.47;;;;;;;22.55;54.20;99880.84;4450853;32;32688;-65
2022/06/17 07:28:46;;;;;;;6.65;3.05;;;;;;;23.21;53.75;99878.97;4452390;32;34175;-67
2022/06/17 07:31:14;;;;;;;7.00;3.10;;;;;;;22.99;53.38;99877.22;4444422;32;32618;-68
2022/06/17 07:33:42;;;;;;;5.87;2.80;;;;;;;23.43;53.69;99876.22;4450956;32;33638;-66
2022/06/17 07:41:52;;;;;;;7.70;2.92;;;;;;;23.34;52.29;99882.84;4451568;32;33866;-70
2022/06/17 07:44:20;;;;;;;5.95;3.08;;;;;;;23.15;52.45;99878.87;4453082;32;33407;-68
2022/06/17 07:46:48;;;;;;;9.98;3.33;;;;;;;23.32;52.65;99879.47;4452590;32;33723;-70
2022/06/17 07:49:16;;;;;;;4.87;2.72;;;;;;;23.42;52.82;99882.72;4452510;32;33889;-67
2022/06/17 07:51:44;;;;;;;7.05;3.08;;;;;;;23.76;53.02;99886.66;4452752;32;33714;-66
2022/06/17 07:54:11;;;;;;;5.62;3.28;;;;;;;23.54;52.29;99883.06;4449978;32;32167;-70
2022/06/17 07:56:39;;;;;;;5.50;3.17;;;;;;;23.61;52.64;99876.59;4451560;32;33957;-70
2022/06/17 07:59:07;;;;;;;4.45;2.62;;;;;;;23.82;52.20;99878.53;4454284;32;32981;-67
2022/06/17 08:01:34;;;;;;;7.90;3.17;;;;;;;23.85;53.50;99886.31;4451782;32;33851;-68
2022/06/17 08:04:02;;;;;;;6.37;3.25;;;;;;;24.27;52.21;99900.94;4452886;32;32606;-66
2022/06/17 08:06:30;;;;;;;5.18;2.80;;;;;;;24.27;51.10;99887.28;4453818;32;32599;-67
2022/06/17 08:08:59;;;;;;;6.22;3.33;;;;;;;24.10;51.71;99891.34;4453899;32;34742;-67
2022/06/17 08:11:27;;;;;;;7.45;3.17;;;;;;;24.50;50.02;99891.66;4450682;32;32965;-68
2022/06/17 08:13:54;;;;;;;6.22;3.40;;;;;;;24.39;50.49;99898.47;4451913;32;33606;-68
2022/06/17 08:16:22;;;;;;;8.13;4.05;;;;;;;24.02;52.19;99895.06;4452931;32;34780;-70
2022/06/17 08:18:50;;;;;;;6.35;3.17;;;;;;;24.26;51.80;99896.50;4448724;32;32639;-69
2022/06/17 08:21:17;;;;;;;8.27;3.47;;;;;;;24.22;51.71;99894.37;4453305;32;33878;-71
2022/06/17 08:24:05;;;;;;;7.82;3.72;;;;;;;24.32;50.43;99895.69;4451376;32;34809;-69
2022/06/17 08:26:33;;;;;;;13.70;6.20;;;;;;;24.48;52.09;99897.31;4452736;32;33927;-69
2022/06/17 08:29:01;;;;;;;13.13;3.67;;;;;;;24.88;51.25;99894.78;4446768;32;34196;-69
2022/06/17 08:31:28;;;;;;;8.82;3.45;;;;;;;24.62;51.72;99896.34;4447148;32;32775;-71
2022/06/17 08:33:56;;;;;;;12.30;4.10;;;;;;;24.76;51.94;99896.41;4450536;32;33686;-69
2022/06/17 08:36:25;;;;;;;7.70;3.12;;;;;;;25.08;51.09;99892.13;4452077;32;32245;-71
2022/06/17 08:39:13;;;;;;;7.07;3.10;;;;;;;25.02;49.65;99891.03;4448304;32;34750;-68
2022/06/17 08:42:25;;;;;;;6.78;3.00;;;;;;;25.26;49.54;99886.91;4450331;32;34178;-68
2022/06/17 08:45:25;;;;;;;5.75;2.97;;;;;;;25.39;47.72;99888.00;4453170;32;33473;-67
2022/06/17 08:48:35;;;;;;;5.75;3.37;;;;;;;25.96;46.18;99892.09;4441337;32;31918;-68
2022/06/17 08:51:19;;;;;;;6.78;2.62;;;;;;;26.24;46.90;99889.97;4421920;32;33994;-68
2022/06/17 08:54:25;;;;;;;4.90;2.70;;;;;;;26.05;48.25;99901.81;4451076;32;33735;-69
2022/06/17 08:56:55;;;;;;;7.40;3.00;;;;;;;26.18;48.00;99898.22;4427039;32;33183;-68
2022/06/17 08:59:32;;;;;;;6.78;2.90;;;;;;;26.30;45.41;99901.16;4451075;32;32730;-69
2022/06/17 09:02:19;;;;;;;4.68;2.72;;;;;;;26.71;44.02;99900.88;4444595;32;34006;-69
2022/06/17 09:05:11;;;;;;;7.47;2.60;;;;;;;26.28;46.39;99901.34;4448509;32;34663;-67
2022/06/17 09:08:07;;;;;;;9.25;2.97;;;;;;;26.41;44.53;99904.06;4436470;32;34957;-68
2022/06/17 09:11:09;;;;;;;5.18;2.90;;;;;;;26.64;45.72;99909.13;4411282;32;36585;-67
2022/06/17 09:14:15;;;;;;;5.50;2.87;;;;;;;27.26;43.90;99911.47;4449349;32;32612;-67
2022/06/17 09:17:27;;;;;;;6.20;3.28;;;;;;;27.31;44.11;99912.47;4440178;32;34005;-67
2022/06/17 09:19:58;;;;;;;6.03;3.28;;;;;;;27.29;44.02;99916.53;4384680;32;32534;-69
2022/06/17 09:22:30;;;;;;;7.10;2.83;;;;;;;27.30;44.43;99913.53;4372523;32;34911;-68
2022/06/17 09:25:08;;;;;;;5.87;3.75;;;;;;;27.07;44.49;99915.97;4412848;32;33988;-67
2022/06/17 09:27:38;;;;;;;5.03;2.67;;;;;;;27.47;42.68;99910.28;4435328;32;32809;-67
2022/06/17 09:30:11;;;;;;;5.07;2.67;;;;;;;27.55;42.94;99921.84;4449110;32;32277;-68
2022/06/17 09:33:00;;;;;;;5.28;2.55;;;;;;;27.44;42.83;99914.28;4449632;32;33944;-68
2022/06/17 09:35:41;;;;;;;7.00;3.25;;;;;;;27.25;43.94;99926.25;4448907;32;32548;-67
2022/06/17 09:38:23;;;;;;;4.35;2.40;;;;;;;27.94;41.54;99913.56;4447772;32;33621;-70
2022/06/17 09:41:01;;;;;;;5.28;2.80;;;;;;;27.77;41.24;99927.00;4435246;32;32768;-68
2022/06/17 09:43:49;;;;;;;6.28;3.10;;;;;;;27.52;41.83;99925.03;4443546;32;34646;-68
2022/06/17 09:46:27;;;;;;;7.87;3.30;;;;;;;27.40;40.35;99935.03;4448300;32;33851;-67
2022/06/17 09:49:14;;;;;;;4.87;2.58;;;;;;;27.34;39.84;99931.25;4444816;32;35671;-67
2022/06/17 09:51:52;;;;;;;5.10;2.62;;;;;;;27.64;40.47;99933.44;4449189;32;33465;-68
2022/06/17 09:54:27;;;;;;;3.97;2.08;;;;;;;27.72;39.15;99943.31;4440222;32;32705;-69
2022/06/17 09:57:29;;;;;;;10.52;3.35;;;;;;;28.21;38.72;99947.19;4435454;32;32678;-66
2022/06/17 10:00:03;;;;;;;5.45;2.50;;;;;;;28.38;38.13;99951.06;4444645;32;33037;-67
2022/06/17 10:02:45;;;;;;;5.47;2.70;;;;;;;28.15;37.74;99946.19;4445640;32;32501;-67
2022/06/17 10:05:36;;;;;;;4.70;2.30;;;;;;;28.76;37.60;99958.31;4443404;32;33915;-68
2022/06/17 10:08:15;;;;;;;6.85;2.53;;;;;;;28.93;36.73;99964.94;4446020;32;33934;-68
2022/06/17 10:11:00;;;;;;;5.68;2.45;;;;;;;28.93;37.57;99958.59;4445610;32;33033;-67
2022/06/17 10:13:47;;;;;;;4.32;2.20;;;;;;;28.71;37.19;99960.94;4450266;32;33664;-69
2022/06/17 10:19:31;;;;;;;7.07;2.85;;;;;;;29.26;34.69;99966.47;4446941;32;34069;-68
2022/06/17 10:22:02;;;;;;;6.37;2.70;;;;;;;28.98;36.42;99967.81;4448299;32;34242;-67
2022/06/17 10:24:45;;;;;;;4.82;2.47;;;;;;;28.83;37.59;99967.38;4449430;32;32746;-69
2022/06/17 10:27:34;;;;;;;5.85;3.03;;;;;;;29.16;36.55;99966.19;4446659;32;33446;-67
2022/06/17 10:30:39;;;;;;;8.35;2.83;;;;;;;28.40;37.23;99973.72;4447159;32;33921;-70
2022/06/17 10:33:13;;;;;;;5.35;2.75;;;;;;;28.94;37.17;99977.63;4447051;32;34948;-71
2022/06/17 10:35:42;;;;;;;6.57;2.87;;;;;;;28.87;37.44;99965.84;4446248;32;32500;-68
2022/06/17 10:38:14;;;;;;;5.60;2.78;;;;;;;28.71;37.51;99971.97;4449246;32;32404;-67
2022/06/17 10:40:42;;;;;;;6.30;2.50;;;;;;;28.81;36.44;99966.75;4448193;32;33784;-67
2022/06/17 10:43:15;;;;;;;4.12;2.53;;;;;;;29.15;36.13;99968.09;4449133;32;33800;-70
2022/06/17 10:45:43;;;;;;;5.03;2.62;;;;;;;29.01;35.53;99966.56;4442237;32;34123;-69
2022/06/17 10:48:26;;;;;;;9.40;3.30;;;;;;;28.51;34.38;99964.75;4442633;32;34631;-69
2022/06/17 10:50:54;;;;;;;5.93;2.90;;;;;;;29.38;34.59;99963.78;4447837;32;32402;-67
2022/06/17 10:53:40;;;;;;;5.90;3.20;;;;;;;29.41;35.22;99968.84;4447431;32;33884;-72
2022/06/17 10:56:12;;;;;;;5.60;2.90;;;;;;;29.33;34.10;99967.22;4448569;32;33267;-67
2022/06/17 10:59:00;;;;;;;4.07;2.33;;;;;;;28.84;35.35;99966.31;4446515;32;34312;-69
2022/06/17 11:01:46;;;;;;;4.85;2.50;;;;;;;29.79;34.48;99963.00;4438173;32;32980;-69
2022/06/17 11:04:48;;;;;;;6.85;3.12;;;;;;;29.39;35.00;99965.44;4446837;32;34327;-69
2022/06/17 11:07:23;;;;;;;8.10;2.95;;;;;;;29.68;33.78;99961.03;4437140;32;33141;-69
2022/06/17 11:10:13;;;;;;;5.07;2.50;;;;;;;28.68;34.85;99977.91;4445835;32;33783;-71
2022/06/17 11:12:53;;;;;;;4.80;2.33;;;;;;;29.02;34.76;99962.72;4432927;32;33934;-68
2022/06/17 11:15:26;;;;;;;3.90;2.62;;;;;;;29.17;34.67;99963.19;4447475;32;32624;-67
2022/06/17 11:17:55;;;;;;;5.00;2.80;;;;;;;28.98;33.93;99973.34;4443169;32;33001;-67
2022/06/17 11:20:26;;;;;;;4.03;2.53;;;;;;;29.11;33.25;99969.59;4447637;32;32323;-69
2022/06/17 11:23:18;;;;;;;5.28;2.60;;;;;;;27.98;33.96;99981.66;4448621;32;34032;-66
2022/06/17 11:25:46;;;;;;;5.07;2.47;;;;;;;28.53;32.57;99976.34;4448142;32;33537;-69
2022/06/17 11:28:17;;;;;;;4.32;2.40;;;;;;;28.73;31.89;99973.41;4448272;32;32159;-67
2022/06/17 11:30:50;;;;;;;6.10;2.83;;;;;;;28.40;32.83;99970.13;4449155;32;35067;-70
2022/06/17 11:33:27;;;;;;;7.12;3.03;;;;;;;27.89;35.18;99971.97;4449291;32;35285;-68
2022/06/17 11:36:06;;;;;;;4.47;2.47;;;;;;;28.09;34.81;99972.69;4446738;32;35112;-70
2022/06/17 11:38:34;;;;;;;8.25;2.90;;;;;;;28.29;34.39;99972.53;4445358;32;32936;-71
2022/06/17 11:41:21;;;;;;;6.60;2.72;;;;;;;28.48;34.81;99967.09;4448859;32;34626;-68
2022/06/17 11:43:49;;;;;;;5.07;2.70;;;;;;;28.47;34.21;99979.16;4447071;32;35817;-68
2022/06/17 11:46:27;;;;;;;6.62;3.35;;;;;;;28.42;35.23;99962.50;4449028;32;33953;-68
2022/06/17 11:48:58;;;;;;;8.25;3.10;;;;;;;28.47;36.57;99982.75;4446162;32;32257;-71
2022/06/17 11:51:30;;;;;;;11.30;3.25;;;;;;;28.17;36.24;99973.47;4439207;32;34968;-69
2022/06/17 11:54:02;;;;;;;6.00;3.25;;;;;;;28.03;36.38;99972.75;4444524;32;33628;-70
2022/06/17 11:56:41;;;;;;;6.12;3.40;;;;;;;28.85;35.22;99969.87;4444616;32;35167;-69
2022/06/17 11:59:18;;;;;;;4.87;3.20;;;;;;;27.46;36.33;99969.06;4442792;32;34548;-68
2022/06/17 12:01:50;;;;;;;5.72;3.20;;;;;;;27.88;35.15;99967.56;4448489;32;33675;-70
2022/06/17 12:04:40;;;;;;;5.43;2.95;;;;;;;28.34;34.19;99956.16;4445838;32;33880;-70
2022/06/17 12:07:45;;;;;;;8.73;3.30;;;;;;;27.85;34.00;99957.00;4447259;32;32933;-69
2022/06/17 12:10:12;;;;;;;5.65;3.05;;;;;;;28.09;33.90;99945.19;4444297;32;33481;-68
2022/06/17 12:12:41;;;;;;;7.18;2.90;;;;;;;28.29;34.73;99941.41;4449700;32;32906;-70
2022/06/17 12:15:09;;;;;;;7.35;2.97;;;;;;;28.18;33.08;99937.47;4445819;32;33548;-68
2022/06/17 12:17:38;;;;;;;6.70;2.97;;;;;;;28.45;32.99;99938.13;4448559;32;32968;-69
2022/06/17 12:20:35;;;;;;;6.53;2.70;;;;;;;27.60;34.87;99934.91;4445814;32;32319;-70